Airport View

Enter AWOS ICAO identifier for current METAR.

ex. KFNL

KJFX 290345Z AUTO 00000KT 10SM CLR 15/15 A2999 RMK AO2 PWINO

29 Sep 2020 03:45

Frequency: 119.225

Phone: 205-295-5539

Other Area AWOS: K1M4 - KCMD - KBHM - KEKY

TAF AMD KBHM 290210Z 2902/2924 33008KT P6SM SCT020 OVC060 FM290400 33006KT P6SM OVC100 FM291800 32012G18KT P6SM BKN100